createdAt,value
2019-01-24T00:01:23.133Z,61.17
2019-01-24T00:03:54.911Z,64.67
2019-01-24T00:06:26.939Z,59.53
2019-01-24T00:08:57.923Z,64.73
2019-01-24T00:11:30.283Z,63.93
2019-01-24T00:14:03.433Z,61.07
2019-01-24T00:16:37.710Z,61.97
2019-01-24T00:19:11.134Z,63.07
2019-01-24T00:21:40.520Z,62.73
2019-01-24T00:24:08.399Z,59.93
2019-01-24T00:26:39.473Z,56.20
2019-01-24T00:29:12.871Z,56.87
2019-01-24T00:31:50.512Z,54.40
2019-01-24T00:34:23.365Z,53.30
2019-01-24T00:36:57.485Z,56.70
2019-01-24T00:39:25.390Z,62.80
2019-01-24T00:41:56.159Z,57.67
2019-01-24T00:44:25.451Z,54.70
2019-01-24T00:46:57.852Z,59.87
2019-01-24T00:49:25.556Z,62.00
2019-01-24T00:51:53.251Z,61.67
2019-01-24T00:54:26.258Z,62.53
2019-01-24T00:57:00.653Z,61.10
2019-01-24T00:59:31.267Z,63.57
2019-01-24T01:02:01.679Z,63.70
2019-01-24T01:04:31.133Z,69.03
2019-01-24T01:07:03.552Z,67.83
2019-01-24T01:09:31.224Z,62.27
2019-01-24T01:11:58.979Z,69.13
2019-01-24T01:14:26.855Z,64.50
2019-01-24T01:16:54.532Z,65.77
2019-01-24T01:19:22.275Z,61.90
2019-01-24T01:21:49.945Z,70.43
2019-01-24T01:24:23.881Z,63.57
2019-01-24T01:26:58.718Z,63.97
2019-01-24T01:29:34.881Z,67.30
2019-01-24T01:32:07.727Z,65.27
2019-01-24T01:34:39.643Z,65.43
2019-01-24T01:37:16.629Z,63.53
2019-01-24T01:39:50.158Z,62.23
2019-01-24T01:42:24.442Z,63.87
2019-01-24T01:45:02.601Z,68.77
2019-01-24T01:47:43.323Z,69.97
2019-01-24T01:50:17.430Z,70.20
2019-01-24T01:52:52.303Z,66.63
2019-01-24T01:55:26.978Z,66.00
2019-01-24T01:57:59.440Z,66.57
2019-01-24T02:00:32.608Z,68.97
2019-01-24T02:03:02.729Z,65.73
2019-01-24T02:05:32.541Z,65.83
2019-01-24T02:08:04.790Z,73.47
2019-01-24T02:10:42.323Z,76.90
2019-01-24T02:13:14.616Z,68.00
2019-01-24T02:15:53.980Z,70.33
2019-01-24T02:18:33.159Z,67.67
2019-01-24T02:21:04.032Z,67.23
2019-01-24T02:23:35.904Z,67.83
2019-01-24T02:26:08.006Z,68.93
2019-01-24T02:28:48.542Z,71.33
2019-01-24T02:31:23.492Z,77.90
2019-01-24T02:33:57.889Z,74.20
2019-01-24T02:36:33.628Z,71.70
2019-01-24T02:39:04.280Z,70.33
2019-01-24T02:41:39.006Z,73.40
2019-01-24T02:44:12.916Z,65.80
2019-01-24T02:47:08.123Z,69.90
2019-01-24T02:49:40.197Z,75.10
2019-01-24T02:52:34.674Z,70.27
2019-01-24T02:55:12.878Z,67.47
2019-01-24T02:58:08.620Z,73.33
2019-01-24T03:00:45.769Z,71.47
2019-01-24T03:03:17.625Z,71.30
2019-01-24T03:05:49.779Z,68.80
2019-01-24T03:08:21.992Z,67.40
2019-01-24T03:10:51.559Z,65.97
2019-01-24T03:13:29.247Z,72.33
2019-01-24T03:16:04.610Z,61.77
2019-01-24T03:18:42.627Z,64.57
2019-01-24T03:21:18.273Z,71.03
2019-01-24T03:23:50.477Z,64.33
2019-01-24T03:26:35.398Z,68.27
2019-01-24T03:29:05.006Z,62.33
2019-01-24T03:31:36.152Z,64.30
2019-01-24T03:34:07.853Z,55.57
2019-01-24T03:36:38.857Z,67.03
2019-01-24T03:39:11.527Z,58.40
2019-01-24T03:41:46.793Z,67.90
2019-01-24T03:44:18.052Z,66.87
2019-01-24T03:46:51.851Z,56.47
2019-01-24T03:49:25.539Z,72.20
2019-01-24T03:51:56.085Z,74.93
2019-01-24T03:54:30.058Z,59.40
2019-01-24T03:57:08.267Z,65.40
2019-01-24T03:59:38.487Z,73.13
2019-01-24T04:02:14.113Z,58.43
2019-01-24T04:04:46.638Z,65.00
2019-01-24T04:07:26.023Z,68.03
2019-01-24T04:09:58.340Z,68.90
2019-01-24T04:12:28.925Z,67.00
2019-01-24T04:15:01.383Z,68.60
2019-01-24T04:17:33.368Z,65.93
2019-01-24T04:20:06.591Z,64.20
2019-01-24T04:22:39.286Z,66.70
2019-01-24T04:25:09.793Z,69.83
2019-01-24T04:27:39.407Z,66.13
2019-01-24T04:30:12.498Z,58.70
2019-01-24T04:32:46.392Z,67.23
2019-01-24T04:35:20.127Z,58.53
2019-01-24T04:37:53.493Z,55.13
2019-01-24T04:40:26.099Z,58.83
2019-01-24T04:42:57.596Z,55.47
2019-01-24T04:45:30.422Z,53.30
2019-01-24T04:48:08.543Z,51.50
2019-01-24T04:50:39.419Z,54.67
2019-01-24T04:53:07.099Z,52.07
2019-01-24T04:55:35.244Z,50.77
2019-01-24T04:58:07.230Z,54.23
2019-01-24T05:00:38.183Z,52.23
2019-01-24T05:03:10.582Z,52.17
2019-01-24T05:05:41.901Z,56.00
2019-01-24T05:08:12.340Z,51.73
2019-01-24T05:10:42.311Z,49.63
2019-01-24T05:13:14.222Z,50.67
2019-01-24T05:15:47.595Z,55.30
2019-01-24T05:18:27.548Z,48.10
2019-01-24T05:21:07.364Z,47.00
2019-01-24T05:23:39.031Z,47.70
2019-01-24T05:26:08.960Z,50.40
2019-01-24T05:28:42.902Z,47.03
2019-01-24T05:31:18.588Z,48.93
2019-01-24T05:33:49.949Z,46.30
2019-01-24T05:36:27.672Z,50.83
2019-01-24T05:38:55.732Z,51.20
2019-01-24T05:41:26.436Z,47.47
2019-01-24T05:43:58.080Z,48.60
2019-01-24T05:46:36.032Z,45.33
2019-01-24T05:49:09.018Z,48.57
2019-01-24T05:51:38.420Z,53.53
2019-01-24T05:54:06.417Z,44.77
2019-01-24T05:56:37.467Z,46.17
2019-01-24T05:59:07.843Z,53.27
2019-01-24T06:01:36.219Z,47.03
2019-01-24T06:04:07.594Z,48.30
2019-01-24T06:06:38.486Z,50.03
2019-01-24T06:09:20.101Z,49.83
2019-01-24T06:11:50.084Z,53.53
2019-01-24T06:14:25.446Z,50.93
2019-01-24T06:17:08.285Z,49.53
2019-01-24T06:19:40.410Z,49.03
2019-01-24T06:22:10.677Z,42.93
2019-01-24T06:24:39.803Z,46.03
2019-01-24T06:27:15.177Z,50.73
2019-01-24T06:29:48.045Z,46.90
2019-01-24T06:32:19.476Z,42.20
2019-01-24T06:34:47.481Z,50.67
2019-01-24T06:37:24.684Z,45.80
2019-01-24T06:39:54.850Z,48.60
2019-01-24T06:42:26.009Z,47.23
2019-01-24T06:44:55.614Z,48.10
2019-01-24T06:47:23.752Z,49.70
2019-01-24T06:49:55.552Z,44.17
2019-01-24T06:52:23.731Z,54.43
2019-01-24T06:55:08.913Z,50.40
2019-01-24T06:57:51.729Z,48.03
2019-01-24T07:00:20.403Z,53.83
2019-01-24T07:02:51.690Z,60.03
2019-01-24T07:05:25.282Z,51.57
2019-01-24T07:08:00.603Z,56.37
2019-01-24T07:10:28.317Z,50.37
2019-01-24T07:12:55.894Z,53.70
2019-01-24T07:15:23.580Z,48.17
2019-01-24T07:17:51.232Z,52.97
2019-01-24T07:20:19.166Z,52.63
2019-01-24T07:22:46.722Z,54.07
2019-01-24T07:25:17.065Z,53.77
2019-01-24T07:27:44.684Z,56.03
2019-01-24T07:30:13.441Z,47.33
2019-01-24T07:32:44.298Z,57.73
2019-01-24T07:35:13.610Z,56.17
2019-01-24T07:37:44.505Z,48.57
2019-01-24T07:40:13.749Z,56.40
2019-01-24T07:42:44.253Z,55.53
2019-01-24T07:45:19.558Z,55.33
2019-01-24T07:47:48.134Z,55.63
2019-01-24T07:50:17.503Z,58.20
2019-01-24T07:52:45.141Z,60.07
2019-01-24T07:55:16.288Z,64.63
2019-01-24T07:57:43.893Z,56.33
2019-01-24T08:00:15.258Z,61.10
2019-01-24T08:02:42.885Z,56.13
2019-01-24T08:05:11.738Z,58.70
2019-01-24T08:07:48.163Z,61.70
2019-01-24T08:10:17.784Z,56.13
2019-01-24T08:12:48.523Z,60.43
2019-01-24T08:15:17.882Z,60.93
2019-01-24T08:17:49.087Z,60.60
2019-01-24T08:20:21.603Z,57.07
2019-01-24T08:22:51.458Z,57.50
2019-01-24T08:25:19.201Z,57.43
2019-01-24T08:27:50.961Z,51.97
2019-01-24T08:30:20.840Z,57.57
2019-01-24T08:32:48.458Z,56.83
2019-01-24T08:35:16.228Z,61.67
2019-01-24T08:37:48.582Z,57.87
2019-01-24T08:40:16.874Z,59.07
2019-01-24T08:42:44.498Z,57.37
2019-01-24T08:45:12.475Z,59.23
2019-01-24T08:47:40.207Z,61.03
2019-01-24T08:50:10.773Z,53.90
2019-01-24T08:52:38.364Z,60.33
2019-01-24T08:55:11.155Z,55.07
2019-01-24T08:57:38.946Z,52.77
2019-01-24T09:00:08.016Z,55.60
2019-01-24T09:02:39.275Z,55.60
2019-01-24T09:05:07.594Z,53.07
2019-01-24T09:07:38.324Z,58.27
2019-01-24T09:10:07.448Z,62.23
2019-01-24T09:12:35.161Z,52.40
2019-01-24T09:15:03.265Z,60.97
2019-01-24T09:17:31.119Z,49.13
2019-01-24T09:19:58.876Z,57.83
2019-01-24T09:22:26.754Z,53.03
2019-01-24T09:24:54.473Z,60.83
2019-01-24T09:27:22.371Z,44.97
2019-01-24T09:29:51.967Z,57.43
2019-01-24T09:32:19.498Z,48.23
2019-01-24T09:34:47.185Z,48.10
2019-01-24T09:37:18.243Z,47.87
2019-01-24T09:39:45.895Z,53.63
2019-01-24T09:42:16.228Z,47.20
2019-01-24T09:44:46.656Z,56.03
2019-01-24T09:47:18.585Z,47.97
2019-01-24T09:49:46.470Z,50.83
2019-01-24T09:52:14.087Z,46.67
2019-01-24T09:54:41.782Z,54.27
2019-01-24T09:57:10.795Z,48.07
2019-01-24T09:59:41.416Z,49.67
2019-01-24T10:02:10.721Z,49.43
2019-01-24T10:05:06.883Z,55.43
2019-01-24T10:07:15.288Z,48.27
2019-01-24T10:09:43.218Z,56.17
2019-01-24T10:12:14.748Z,45.47
2019-01-24T10:14:42.550Z,53.40
2019-01-24T10:17:10.254Z,46.70
2019-01-24T10:19:37.870Z,55.33
2019-01-24T10:22:08.797Z,47.03
2019-01-24T10:24:36.370Z,55.03
2019-01-24T10:27:08.763Z,51.10
2019-01-24T10:29:36.476Z,47.87
2019-01-24T10:32:04.508Z,54.00
2019-01-24T10:34:32.187Z,47.73
2019-01-24T10:37:00.874Z,52.07
2019-01-24T10:39:28.503Z,45.20
2019-01-24T10:41:56.326Z,44.03
2019-01-24T10:44:24.023Z,48.53
2019-01-24T10:46:52.588Z,47.83
2019-01-24T10:49:20.232Z,48.00
2019-01-24T10:51:47.848Z,48.77
2019-01-24T10:54:15.457Z,50.33
2019-01-24T10:56:43.368Z,48.80
2019-01-24T10:59:10.974Z,49.17
2019-01-24T11:01:38.662Z,47.07
2019-01-24T11:04:06.400Z,48.07
2019-01-24T11:06:35.050Z,51.27
2019-01-24T11:09:04.869Z,51.93
2019-01-24T11:11:32.540Z,50.63
2019-01-24T11:14:00.182Z,50.33
2019-01-24T11:16:31.871Z,46.87
2019-01-24T11:18:59.488Z,49.13
2019-01-24T11:21:27.430Z,51.00
2019-01-24T11:23:55.040Z,51.27
2019-01-24T11:26:24.692Z,50.87
2019-01-24T11:28:52.305Z,50.10
2019-01-24T11:31:19.878Z,50.10
2019-01-24T11:33:47.531Z,50.33
2019-01-24T11:36:15.158Z,53.37
2019-01-24T11:38:42.729Z,49.07
2019-01-24T11:41:10.329Z,48.37
2019-01-24T11:43:37.994Z,47.53
2019-01-24T11:46:05.584Z,48.50
2019-01-24T11:48:33.199Z,48.07
2019-01-24T11:51:00.838Z,48.57
2019-01-24T11:53:28.417Z,51.43
2019-01-24T11:55:56.455Z,48.33
2019-01-24T11:58:33.667Z,50.67
2019-01-24T12:01:01.247Z,51.77
2019-01-24T12:03:28.846Z,48.97
2019-01-24T12:05:56.499Z,51.60
2019-01-24T12:08:24.124Z,52.20
2019-01-24T12:10:51.781Z,47.07
2019-01-24T12:13:19.808Z,52.47
2019-01-24T12:15:47.383Z,52.93
2019-01-24T12:18:15.013Z,49.90
2019-01-24T12:20:42.885Z,49.40
2019-01-24T12:23:10.531Z,50.60
2019-01-24T12:25:38.171Z,49.97
2019-01-24T12:28:21.327Z,50.33
2019-01-24T12:30:48.961Z,50.43
2019-01-24T12:33:16.684Z,51.03
2019-01-24T12:35:44.225Z,49.20
2019-01-24T12:38:12.926Z,54.47
2019-01-24T12:40:40.517Z,55.10
2019-01-24T12:43:08.103Z,60.57
2019-01-24T12:45:36.863Z,52.07
2019-01-24T12:48:05.459Z,60.40
2019-01-24T12:50:33.074Z,55.57
2019-01-24T12:53:00.770Z,51.97
2019-01-24T12:55:28.853Z,56.87
2019-01-24T12:57:56.464Z,55.47
2019-01-24T13:00:26.521Z,54.67
2019-01-24T13:02:54.094Z,51.57
2019-01-24T13:05:21.707Z,54.13
2019-01-24T13:07:49.415Z,53.10
2019-01-24T13:10:19.357Z,53.53
2019-01-24T13:12:47.843Z,52.90
2019-01-24T13:15:16.460Z,54.83
2019-01-24T13:17:44.132Z,51.93
2019-01-24T13:20:13.271Z,53.20
2019-01-24T13:22:41.069Z,53.93
2019-01-24T13:25:11.718Z,54.23
2019-01-24T13:27:39.405Z,46.57
2019-01-24T13:30:11.298Z,51.47
2019-01-24T13:32:38.875Z,55.10
2019-01-24T13:35:06.585Z,53.87
2019-01-24T13:37:34.252Z,61.87
2019-01-24T13:40:01.918Z,53.03
2019-01-24T13:42:29.534Z,54.13
2019-01-24T13:44:57.474Z,56.93
2019-01-24T13:47:24.999Z,58.93
2019-01-24T13:49:52.581Z,64.07
2019-01-24T13:52:20.213Z,57.13
2019-01-24T13:54:47.834Z,57.70
2019-01-24T13:57:16.968Z,58.60
2019-01-24T13:59:44.606Z,53.27
2019-01-24T14:02:12.169Z,57.03
2019-01-24T14:04:43.597Z,51.70
2019-01-24T14:07:11.246Z,49.50
2019-01-24T14:09:38.829Z,54.83
2019-01-24T14:12:06.464Z,54.57
2019-01-24T14:14:34.054Z,55.17
2019-01-24T14:17:05.290Z,49.67
2019-01-24T14:19:32.895Z,50.17
2019-01-24T14:22:01.469Z,51.50
2019-01-24T14:24:29.136Z,46.33
2019-01-24T14:26:56.785Z,49.23
2019-01-24T14:29:24.441Z,51.43
2019-01-24T14:31:52.211Z,47.73
2019-01-24T14:34:19.916Z,51.17
2019-01-24T14:36:47.554Z,49.90
2019-01-24T14:39:15.172Z,47.83
2019-01-24T14:41:42.925Z,48.80
2019-01-24T14:44:10.879Z,50.63
2019-01-24T14:46:38.463Z,52.77
2019-01-24T14:49:06.074Z,55.13
2019-01-24T14:51:34.077Z,48.97
2019-01-24T14:54:01.727Z,52.83
2019-01-24T14:56:29.763Z,49.37
2019-01-24T14:58:57.345Z,51.40
2019-01-24T15:01:26.323Z,51.40
2019-01-24T15:03:54.014Z,51.47
2019-01-24T15:06:21.592Z,51.03
2019-01-24T15:08:49.208Z,51.77
2019-01-24T15:11:16.976Z,53.43
2019-01-24T15:13:44.800Z,47.70
2019-01-24T15:16:12.538Z,54.63
2019-01-24T15:18:40.325Z,48.97
2019-01-24T15:21:08.071Z,48.43
2019-01-24T15:23:35.754Z,46.10
2019-01-24T15:26:03.837Z,48.33
2019-01-24T15:28:31.479Z,49.30
2019-01-24T15:30:59.134Z,46.37
2019-01-24T15:33:27.345Z,49.53
2019-01-24T15:35:55.205Z,44.50
2019-01-24T15:38:22.785Z,43.10
2019-01-24T15:40:52.065Z,47.90
2019-01-24T15:43:19.739Z,54.60
2019-01-24T15:45:47.360Z,51.47
2019-01-24T15:48:15.245Z,50.00
2019-01-24T15:50:42.856Z,51.70
2019-01-24T15:53:10.568Z,52.63
2019-01-24T15:55:38.132Z,48.80
2019-01-24T15:58:08.855Z,47.47
2019-01-24T16:00:36.488Z,48.50
2019-01-24T16:03:04.718Z,53.97
2019-01-24T16:05:32.655Z,46.70
2019-01-24T16:08:01.999Z,49.97
2019-01-24T16:10:29.642Z,53.47
2019-01-24T16:12:57.181Z,56.10
2019-01-24T16:15:27.525Z,54.47
2019-01-24T16:17:55.263Z,56.60
2019-01-24T16:20:24.058Z,56.27
2019-01-24T16:22:51.704Z,52.77
2019-01-24T16:25:19.916Z,56.47
2019-01-24T16:27:52.928Z,57.83
2019-01-24T16:30:23.091Z,59.00
2019-01-24T16:32:51.068Z,60.27
2019-01-24T16:35:19.135Z,57.40
2019-01-24T16:37:46.806Z,61.87
2019-01-24T16:40:15.840Z,53.90
2019-01-24T16:42:43.656Z,61.63
2019-01-24T16:45:16.605Z,68.57
2019-01-24T16:47:44.257Z,59.80
2019-01-24T16:50:12.373Z,69.17
2019-01-24T16:52:40.228Z,57.70
2019-01-24T16:55:10.305Z,65.13
2019-01-24T16:57:37.993Z,53.33
2019-01-24T17:00:28.446Z,59.30
2019-01-24T17:02:56.006Z,50.13
2019-01-24T17:05:23.608Z,62.30
2019-01-24T17:07:51.539Z,52.83
2019-01-24T17:10:19.903Z,60.87
2019-01-24T17:12:47.440Z,56.93
2019-01-24T17:15:15.983Z,60.00
2019-01-24T17:17:43.691Z,64.40
2019-01-24T17:20:17.592Z,63.93
2019-01-24T17:22:45.307Z,50.80
2019-01-24T17:25:13.053Z,62.47
2019-01-24T17:27:46.131Z,54.90
2019-01-24T17:30:13.301Z,59.50
2019-01-24T17:32:41.382Z,55.07
2019-01-24T17:35:09.323Z,60.73
2019-01-24T17:37:36.997Z,54.97
2019-01-24T17:40:07.494Z,58.83
2019-01-24T17:42:35.190Z,56.23
2019-01-24T17:45:04.175Z,69.87
2019-01-24T17:47:31.836Z,70.47
2019-01-24T17:49:59.662Z,72.77
2019-01-24T17:52:27.177Z,56.80
2019-01-24T17:54:54.842Z,60.87
2019-01-24T17:57:22.432Z,56.77
2019-01-24T17:59:52.779Z,62.67
2019-01-24T18:02:20.419Z,58.87
2019-01-24T18:04:48.104Z,57.40
2019-01-24T18:07:15.710Z,56.87
2019-01-24T18:09:52.642Z,66.30
2019-01-24T18:12:22.256Z,54.37
2019-01-24T18:14:50.110Z,65.17
2019-01-24T18:17:24.533Z,50.37
2019-01-24T18:19:56.538Z,67.30
2019-01-24T18:22:24.244Z,59.17
2019-01-24T18:24:52.008Z,65.83
2019-01-24T18:27:33.848Z,62.53
2019-01-24T18:30:01.628Z,66.30
2019-01-24T18:32:29.413Z,57.67
2019-01-24T18:34:58.191Z,65.37
2019-01-24T18:37:29.456Z,54.47
2019-01-24T18:39:57.201Z,57.50
2019-01-24T18:42:24.970Z,66.10
2019-01-24T18:44:55.965Z,55.47
2019-01-24T18:47:31.331Z,58.80
2019-01-24T18:50:07.314Z,57.83
2019-01-24T18:52:34.989Z,56.27
2019-01-24T18:55:02.801Z,58.23
2019-01-24T18:57:32.298Z,58.97
2019-01-24T19:00:00.774Z,55.30
2019-01-24T19:02:28.364Z,53.67
2019-01-24T19:04:56.296Z,53.53
2019-01-24T19:07:23.890Z,57.00
2019-01-24T19:09:51.639Z,53.67
2019-01-24T19:12:27.612Z,57.17
2019-01-24T19:14:55.251Z,51.87
2019-01-24T19:17:24.055Z,55.37
2019-01-24T19:19:51.670Z,57.00
2019-01-24T19:22:19.341Z,54.30
2019-01-24T19:24:46.949Z,60.97
2019-01-24T19:27:14.677Z,52.73
2019-01-24T19:29:42.889Z,60.77
2019-01-24T19:32:10.590Z,66.80
2019-01-24T19:34:38.287Z,58.13
2019-01-24T19:37:13.269Z,50.73
2019-01-24T19:39:40.945Z,63.83
2019-01-24T19:42:08.641Z,57.33
2019-01-24T19:44:36.685Z,67.83
2019-01-24T19:47:04.556Z,54.00
2019-01-24T19:49:32.249Z,62.57
2019-01-24T19:51:59.949Z,53.83
2019-01-24T19:54:27.606Z,53.97
2019-01-24T19:56:55.276Z,59.40
2019-01-24T19:59:22.917Z,55.27
2019-01-24T20:01:50.596Z,67.23
2019-01-24T20:04:18.296Z,64.27
2019-01-24T20:06:46.003Z,68.57
2019-01-24T20:09:13.674Z,61.93
2019-01-24T20:11:41.435Z,66.67
2019-01-24T20:14:09.102Z,59.50
2019-01-24T20:16:37.395Z,63.03
2019-01-24T20:19:05.112Z,61.20
2019-01-24T20:21:32.870Z,68.23
2019-01-24T20:24:00.550Z,59.90
2019-01-24T20:26:28.186Z,69.30
2019-01-24T20:28:55.900Z,65.40
2019-01-24T20:31:23.658Z,61.13
2019-01-24T20:33:51.358Z,65.50
2019-01-24T20:36:20.212Z,63.70
2019-01-24T20:38:47.956Z,67.17
2019-01-24T20:41:15.611Z,65.37
2019-01-24T20:43:43.250Z,71.50
2019-01-24T20:46:10.894Z,64.77
2019-01-24T20:48:41.583Z,67.00
2019-01-24T20:51:09.273Z,64.47
2019-01-24T20:53:36.950Z,71.30
2019-01-24T20:56:04.534Z,69.40
2019-01-24T20:58:32.182Z,75.57
2019-01-24T21:00:59.892Z,64.47
2019-01-24T21:03:27.750Z,73.27
2019-01-24T21:05:55.470Z,61.93
2019-01-24T21:08:23.116Z,71.97
2019-01-24T21:10:50.780Z,79.20
2019-01-24T21:13:18.425Z,73.20
2019-01-24T21:15:46.068Z,73.73
2019-01-24T21:18:16.845Z,68.07
2019-01-24T21:20:44.422Z,75.77
2019-01-24T21:23:12.099Z,72.83
2019-01-24T21:25:39.693Z,73.90
2019-01-24T21:28:07.561Z,78.30
2019-01-24T21:30:36.271Z,72.93
2019-01-24T21:33:04.730Z,73.23
2019-01-24T21:35:32.455Z,76.07
2019-01-24T21:38:00.107Z,82.43
2019-01-24T21:40:28.052Z,74.30
2019-01-24T21:42:55.999Z,72.03
2019-01-24T21:45:28.887Z,80.13
2019-01-24T21:47:56.471Z,73.17
2019-01-24T21:50:25.221Z,75.13
2019-01-24T21:52:52.843Z,70.40
2019-01-24T21:55:21.033Z,78.27
2019-01-24T21:57:48.876Z,77.93
2019-01-24T22:00:22.079Z,73.00
2019-01-24T22:02:54.457Z,78.27
2019-01-24T22:05:22.457Z,77.90
2019-01-24T22:07:50.141Z,75.13
2019-01-24T22:10:19.947Z,72.63
2019-01-24T22:12:47.716Z,78.13
2019-01-24T22:15:17.104Z,72.90
2019-01-24T22:17:44.717Z,71.83
2019-01-24T22:20:12.859Z,72.60
2019-01-24T22:22:40.408Z,65.43
2019-01-24T22:25:11.239Z,75.20
2019-01-24T22:27:38.836Z,77.03
2019-01-24T22:30:09.610Z,72.97
2019-01-24T22:32:37.217Z,75.07
2019-01-24T22:35:05.628Z,81.50
2019-01-24T22:37:33.309Z,80.03
2019-01-24T22:40:00.949Z,80.73
2019-01-24T22:42:28.645Z,83.20
2019-01-24T22:44:56.317Z,81.27
2019-01-24T22:47:23.975Z,77.50
2019-01-24T22:49:51.609Z,79.30
2019-01-24T22:52:19.240Z,76.27
2019-01-24T22:54:46.983Z,76.63
2019-01-24T22:57:14.617Z,76.43
2019-01-24T22:59:42.263Z,78.47
2019-01-24T23:02:17.118Z,74.40
2019-01-24T23:04:44.719Z,73.83
2019-01-24T23:07:12.373Z,72.33
2019-01-24T23:09:44.063Z,81.60
2019-01-24T23:12:09.435Z,78.67
2019-01-24T23:14:37.120Z,80.20
2019-01-24T23:17:04.915Z,79.47
2019-01-24T23:19:32.582Z,82.67
2019-01-24T23:22:00.186Z,79.43
2019-01-24T23:24:27.800Z,77.30
2019-01-24T23:26:55.463Z,74.17
2019-01-24T23:29:23.128Z,75.00
2019-01-24T23:31:50.739Z,74.13
2019-01-24T23:34:18.391Z,84.73
2019-01-24T23:36:46.153Z,90.43
2019-01-24T23:39:13.758Z,85.67
2019-01-24T23:41:41.372Z,88.23
2019-01-24T23:44:09.058Z,92.77
2019-01-24T23:46:36.638Z,92.27
2019-01-24T23:49:04.311Z,89.03
2019-01-24T23:51:32.687Z,86.53
2019-01-24T23:54:00.327Z,86.93
2019-01-24T23:56:27.960Z,92.83
2019-01-24T23:58:55.608Z,87.93
